Aurora, Brazil
Current Conditions -  °F | °C
As of 2:00 PM on Sunday 21 Dec 2014 (Local Time) from SBJU Reporting Station
Scattered Clouds Scattered Clouds  
Wind Chill: 34°   Ceiling: Unl
Heat Index: 35°   Visibility: 6mi
Dew Point: 18°   Wind: 9mph
Humidity: 38%   Direction: 130°SE
Pressure: 29.97"   Gusts: NA
Location:  6.94°S, 38.97°W
Report Text: SBJU 211700Z 13008KT 9999 SCT023 34/18 Q1015
Loading
Personal Weather Stations






























Interactive Weather Map New forecast layout! Learn more

10-Day Weather Forecast

Advertisements
Track Severe Weather on mobile